Bauang Weathercam more information Bauang Weathercam


Rain radar more information rain snow radar


Visit other webcamsites:

Youtube



Nearby METAR Reports

   
RPLC - Angeles/Pampanga, Philippines
Distance from station: S 165 km
Updated: 29-09-2022 03:00
Mostly Cloudy  
Mostly Cloudy  
   Wind: NNW 1 m/s
Wind: NNW 1 m/s
Temperature: 26°C
Dew Point: 24°C
Humidity: 89%
Barometer: 1009 hPa
Clouds: Mostly Cloudy
Visibility: 7 km
Cloud details: Partly Cloudy 609.6 m,
Mostly Cloudy 3048 m
RPLC 281900Z 34002KT 7000 SCT020 BKN100 26/24 Q1009 NOSIG RMK A2980
RPLI - Laoag Intl(Ph-Ar, Philippines
Distance from station: N 172 km
Updated: 29-09-2022 02:00
NOT Current
Thunderstorm, Mostly Cloudy  
Thunderstorm, Mostly Cloudy  
   Wind: ESE 2.1 m/s
Wind: ESE 2.1 m/s
Temperature: 26°C
Dew Point: 25°C
Humidity: 94%
Barometer: 1008 hPa
Clouds: Mostly Cloudy
Visibility: More than 10 km
Cloud details: Few Clouds 518.2 m,
Mostly Cloudy 8839.2 m
RPLI 281800Z 11004KT 9999 TS FEW017CB BKN290 26/25 Q1008 NOSIG RMK A2977 CB NW
RPLB - Olongapo/Subic, Philippines
Distance from station: S 203 km
Updated: 29-09-2022 03:00
Mostly Cloudy  
Mostly Cloudy  
   Wind: East 1.5 m/s
Wind: East 1.5 m/s
Temperature: 25°C
Dew Point: 24°C
Humidity: 94%
Barometer: 1009 hPa
Clouds: Mostly Cloudy
Visibility: More than 10 km
Cloud details: Few Clouds 548.6 m,
Mostly Cloudy 2438.4 m
RPLB 281900Z 09003KT 9999 FEW018 BKN080 25/24 Q1009 NOSIG RMK A2980
RPLL - Ninoy Aquino Int, Philippines
Distance from station: SSE 246 km
Updated: 29-09-2022 03:00
Light Rain, Overcast  
Light Rain, Overcast  
   Wind: ESE 2.1 m/s
Wind: ESE 2.1 m/s
Temperature: 26°C
Dew Point: 25°C
Humidity: 94%
Barometer: 1008 hPa
Clouds: Overcast
Visibility: 8 km
Cloud details: Mostly Cloudy 670.6 m,
Overcast 2438.4 m
RPLL 281900Z 12004KT 8000 -RA BKN022 OVC080 26/25 Q1008 NOSIG RMK A2977
RPMR - Romblon/Tablas I, Philippines
Distance from station: SSE 498 km
Updated: 28-09-2022 17:00
NOT Current
Light Showers, Rain, Overcast  
Light Showers, Rain, Overcast  
   Wind: North 2.6 m/s
Wind: North 2.6 m/s
Temperature: 25°C
Dew Point: 23°C
Humidity: 89%
Barometer: 1009 hPa
Clouds: Overcast
Visibility: 8 km
Cloud details: Partly Cloudy 548.6 m,
Overcast 2438.4 m
RPMR 280900Z 35005KT 8000 -SHRA SCT018 OVC080 25/23 Q1009 RMK A2980
RPVP - Puerto Princesa, Philippines
Distance from station: SSW 778 km
Updated: 29-09-2022 02:00
NOT Current
Overcast  
Overcast  
   Wind: West 2.1 m/s
Wind: West 2.1 m/s
Temperature: 27°C
Heat Index: 31°C
Dew Point: 25°C
Humidity: 89%
Barometer: 1008 hPa
Clouds: Overcast
Visibility: More than 10 km
Cloud details: Partly Cloudy 579.1 m,
Overcast 2438.4 m
RPVP 281800Z 27004KT 9999 SCT019 OVC080 27/25 Q1008 RMK A2977
RPVM - Mactan-Cebu, Philippines
Distance from station: SSE 800 km
Updated: 29-09-2022 03:00
Partly Cloudy  
Partly Cloudy  
   Wind: WNW 2.1 m/s
Wind: WNW 2.1 m/s
Temperature: 26°C
Dew Point: 24°C
Humidity: 89%
Barometer: 1009 hPa
Clouds: Partly Cloudy
Visibility: More than 10 km
Cloud details: Few Clouds 548.6 m,
Partly Cloudy 3048 m
RPVM 281900Z 30004KT 9999 FEW018CB SCT100 26/24 Q1009 RMK A2980 CB E
RPMZ - Zamboanga (civ/A, Philippines
Distance from station: S 1090 km
Updated: 29-09-2022 02:00
NOT Current
Mostly Cloudy  
Mostly Cloudy  
   Wind: varies 1 m/s
Wind: varies 1 m/s
Temperature: 24°C
Dew Point: 23°C
Humidity: 94%
Barometer: 1008 hPa
Clouds: Mostly Cloudy
Visibility: More than 10 km
Cloud details: Partly Cloudy 457.2 m,
Mostly Cloudy 2743.2 m
RPMZ 281800Z VRB02KT 9999 SCT015 BKN090 24/23 Q1008 RMK A2977
RPMD - Davao/Francisco, Philippines
Distance from station: SSE 1198 km
Updated: 29-09-2022 03:00
Nearby Showers, Mostly Cloudy  
Nearby Showers, Mostly Cloudy  
   Wind: WNW 1.5 m/s
Wind: WNW 1.5 m/s
Temperature: 24°C
Dew Point: 24°C
Humidity: 100%
Barometer: 1009 hPa
Clouds: Mostly Cloudy
Visibility: More than 10 km
Cloud details: Partly Cloudy 457.2 m,
Mostly Cloudy 2743.2 m
RPMD 281900Z 30003KT 260V340 9999 VCSH SCT015 BKN090 24/24 Q1009 RMK A2980 VCSH N E S W

Script developed by  Saratoga-weather.org Adapted for the template by  Weerstation Leuven

You find our weather info also at:

Ambient Weather

WeatherCloud

Philippine Atmospheric, Geophysical and Astronomical Services Administration